Data for 03/30/2007

Time Sea-Level Adjusted Pressure Absolute Pressure Temperature Relative Humidity Dew Point   
(mb) (inHg) (mb) (inHg) (C) (F) (%) (C) (F)
00:05 1028 30.36 857 25.31 -2.2 28.1 59 -9.1 15.7
00:10 1028 30.36 857 25.31 -2.3 27.9 60 -9 15.9
00:15 1027 30.33 857 25.31 -2.3 27.9 61 -8.9 16
00:20 1027 30.33 856 25.28 -2.3 27.8 60 -9 15.7
00:25 1027 30.33 856 25.28 -2.4 27.8 61 -8.8 16.1
00:30 1027 30.33 856 25.28 -2.4 27.6 62 -8.8 16.1
00:35 1027 30.33 856 25.28 -2.6 27.3 63 -8.8 16.2
00:40 1027 30.33 856 25.28 -2.7 27.2 63 -8.7 16.4
00:45 1027 30.33 856 25.28 -2.8 27 63 -8.8 16.1
00:50 1027 30.33 856 25.28 -2.8 26.9 63 -9 15.8
00:55 1027 30.33 856 25.28 -2.8 26.9 61 -9.3 15.3
01:00 1027 30.33 856 25.28 -2.8 26.9 61 -9.4 15.1
01:05 1027 30.33 856 25.28 -2.9 26.8 61 -9.3 15.3
01:10 1027 30.33 856 25.28 -3 26.6 62 -9.3 15.3
01:15 1027 30.33 856 25.28 -3.1 26.5 62 -9.4 15
01:20 1027 30.33 856 25.28 -3.1 26.4 62 -9.5 14.9
01:25 1027 30.33 856 25.28 -3.1 26.4 61 -9.6 14.7
01:30 1027 30.33 856 25.28 -3.1 26.4 61 -9.6 14.8
01:35 1027 30.33 856 25.28 -3.1 26.4 61 -9.7 14.5
01:40 1026 30.3 856 25.28 -3.1 26.4 61 -9.7 14.5
01:45 1027 30.33 856 25.28 -3.1 26.4 61 -9.7 14.6
01:50 1027 30.33 856 25.28 -3.2 26.3 61 -9.6 14.8
01:55 1027 30.33 856 25.28 -3.2 26.2 61 -9.6 14.6
02:00 1027 30.33 856 25.28 -3.3 26.1 62 -9.6 14.7
02:05 1026 30.3 856 25.28 -3.2 26.2 63 -9.4 15.1
02:10 1026 30.3 856 25.28 -3.3 26.1 62 -9.5 14.8
02:15 1026 30.3 855 25.25 -3.3 26.1 63 -9.3 15.2
02:20 1026 30.3 855 25.25 -3.4 25.9 64 -9.3 15.2
02:25 1026 30.3 855 25.25 -3.4 25.9 64 -9.3 15.2
02:30 1026 30.3 855 25.25 -3.4 25.8 64 -9.4 15.1
02:35 1026 30.3 855 25.25 -3.4 25.9 64 -9.3 15.3
02:40 1026 30.3 855 25.25 -3.4 25.8 64 -9.3 15.2
02:45 1026 30.3 855 25.25 -3.4 25.8 65 -9.2 15.5
02:50 1026 30.3 855 25.25 -3.5 25.7 65 -9.2 15.5
02:55 1026 30.3 855 25.25 -3.5 25.6 66 -9 15.7
03:00 1026 30.3 855 25.25 -3.6 25.5 66 -9.2 15.5
03:05 1026 30.3 855 25.25 -3.6 25.5 66 -9.1 15.7
03:10 1025 30.27 855 25.25 -3.6 25.5 67 -9 15.9
03:15 1025 30.27 855 25.25 -3.6 25.4 67 -9 15.8
03:20 1025 30.27 854 25.22 -3.7 25.4 66 -9.1 15.6
03:25 1025 30.27 854 25.22 -3.6 25.5 67 -8.9 16
03:30 1025 30.27 854 25.22 -3.7 25.3 67 -9 15.8
03:35 1025 30.27 854 25.22 -3.7 25.3 67 -9 15.7
03:40 1025 30.27 854 25.22 -3.7 25.3 67 -9 15.8
03:45 1025 30.27 854 25.22 -3.8 25.2 67 -8.9 15.9
03:50 1025 30.27 854 25.22 -3.8 25.2 68 -8.8 16.2
03:55 1025 30.27 854 25.22 -3.9 25 67 -9.1 15.6
04:00 1025 30.27 854 25.22 -4 24.9 69 -8.9 16
04:05 1025 30.27 854 25.22 -4 24.8 71 -8.6 16.6
04:10 1025 30.27 854 25.22 -4.1 24.6 73 -8.2 17.2
04:15 1024 30.24 854 25.22 -4.2 24.5 75 -8 17.7
04:20 1024 30.24 854 25.22 -4.3 24.3 76 -7.9 17.8
04:25 1025 30.27 854 25.22 -4.2 24.4 76 -7.8 18
04:30 1024 30.24 854 25.22 -4.2 24.5 76 -7.8 18
04:35 1024 30.24 854 25.22 -4.2 24.5 76 -7.8 18
04:40 1024 30.24 854 25.22 -4.2 24.5 75 -8 17.7
04:45 1024 30.24 853 25.19 -4.2 24.4 75 -8 17.7
04:50 1024 30.24 853 25.19 -4.4 24.1 76 -8 17.7
04:55 1024 30.24 853 25.19 -4.5 24 76 -8.1 17.5
05:00 1024 30.24 853 25.19 -4.5 24 73 -8.6 16.6
05:05 1024 30.24 853 25.19 -4.5 24 72 -8.7 16.3
05:10 1024 30.24 853 25.19 -4.4 24.1 71 -8.9 16
05:15 1024 30.24 853 25.19 -4.4 24.1 71 -9 15.8
05:20 1024 30.24 853 25.19 -4.4 24.1 68 -9.4 15.1
05:25 1024 30.24 853 25.19 -4.2 24.4 68 -9.2 15.4
05:30 1024 30.24 853 25.19 -4.2 24.5 67 -9.5 14.9
05:35 1023 30.21 853 25.19 -4.1 24.7 66 -9.4 15.1
05:40 1023 30.21 853 25.19 -4.1 24.6 68 -9.2 15.4
05:45 1023 30.21 853 25.19 -4.2 24.4 68 -9.2 15.5
05:50 1023 30.21 852 25.16 -4.3 24.2 69 -9.1 15.5
05:55 1023 30.21 852 25.16 -4.6 23.7 70 -9.3 15.2
06:00 1023 30.21 852 25.16 -4.6 23.7 69 -9.4 15.1
06:05 1023 30.21 852 25.16 -4.6 23.6 70 -9.4 15.1
06:10 1023 30.21 852 25.16 -4.8 23.4 70 -9.4 15.1
06:15 1023 30.21 852 25.16 -4.8 23.3 71 -9.4 15.1
06:20 1023 30.21 852 25.16 -4.7 23.5 70 -9.3 15.2
06:25 1023 30.21 852 25.16 -4.8 23.4 71 -9.3 15.3
06:30 1023 30.21 852 25.16 -4.8 23.3 71 -9.2 15.4
06:35 1023 30.21 852 25.16 -4.9 23.2 72 -9.3 15.3
06:40 1023 30.21 852 25.16 -4.9 23.2 70 -9.5 14.9
06:45 1023 30.21 852 25.16 -4.8 23.4 70 -9.5 14.9
06:50 1023 30.21 852 25.16 -4.7 23.5 69 -9.5 14.9
06:55 1023 30.21 852 25.16 -4.8 23.4 70 -9.3 15.2
07:00 1023 30.21 852 25.16 -4.8 23.3 70 -9.4 15
07:05 1023 30.21 852 25.16 -4.7 23.5 69 -9.5 14.9
07:10 1023 30.21 852 25.16 -4.8 23.3 71 -9.3 15.2
07:15 1023 30.21 852 25.16 -5 23 72 -9.3 15.3
07:20 1023 30.21 852 25.16 -5 23 71 -9.5 14.8
07:25 1023 30.21 852 25.16 -4.9 23.2 71 -9.4 15.1
07:30 1023 30.21 852 25.16 -5 23 72 -9.4 15.1
07:35 1023 30.21 852 25.16 -5.2 22.7 73 -9.4 15.1
07:40 1023 30.21 852 25.16 -5.4 22.4 73 -9.4 15.1
07:45 1023 30.21 852 25.16 -5.6 22 74 -9.4 15
07:50 1022 30.18 852 25.16 -5.7 21.7 73 -9.8 14.3
07:55 1022 30.18 852 25.16 -5.7 21.7 72 -10 13.9
08:00 1022 30.18 851 25.13 -5.5 22.1 71 -10 13.9
08:05 1022 30.18 851 25.13 -5.2 22.6 68 -10.1 13.7
08:10 1022 30.18 851 25.13 -5 22.9 69 -9.9 14.1
08:15 1022 30.18 851 25.13 -4.8 23.3 68 -9.8 14.4
08:20 1022 30.18 851 25.13 -4.6 23.7 66 -10 14.1
08:25 1022 30.18 851 25.13 -4.4 24.2 65 -10.1 13.9
08:30 1022 30.18 851 25.13 -3.9 25 61 -10.2 13.6
08:35 1022 30.18 851 25.13 -3.3 26 60 -10 14
08:40 1021 30.15 851 25.13 -2.8 26.9 55 -10.6 13
08:45 1021 30.15 851 25.13 -2.7 27.1 55 -10.5 13.1
08:50 1021 30.15 851 25.13 -2 28.3 53 -10.4 13.3
08:55 1021 30.15 851 25.13 -1.4 29.4 52 -10 14
09:00 1021 30.15 851 25.13 -1 30.3 51 -9.8 14.3
09:05 1021 30.15 851 25.13 -1.5 29.4 54 -9.6 14.7
09:10 1021 30.15 850 25.1 -1.3 29.7 54 -9.5 14.9
09:15 1021 30.15 850 25.1 -0.8 30.6 50 -9.8 14.3
09:20 1021 30.15 850 25.1 -0.9 30.4 51 -9.7 14.6
09:25 1021 30.15 851 25.13 -0.9 30.3 54 -9 15.7
09:30 1021 30.15 851 25.13 -1.3 29.6 57 -8.8 16.2
09:35 1021 30.15 851 25.13 -1 30.2 55 -8.9 15.9
09:40 1021 30.15 851 25.13 -0.7 30.7 52 -9.4 15.1
09:45 1021 30.15 851 25.13 -0.8 30.6 55 -8.7 16.4
09:50 1021 30.15 851 25.13 -0.8 30.5 52 -9.4 15.1
09:55 1021 30.15 851 25.13 -0.4 31.3 51 -9.2 15.4
10:00 1021 30.15 850 25.1 -0.4 31.4 50 -9.5 14.9
10:05 1021 30.15 850 25.1 -0 31.9 51 -9.1 15.6
10:10 1021 30.15 850 25.1 0.7 33.3 45 -9.9 14.2
10:15 1021 30.15 850 25.1 0.4 32.7 48 -9.3 15.3
10:20 1021 30.15 850 25.1 0.3 32.6 53 -8.2 17.2
10:25 1021 30.15 850 25.1 0.6 33.1 52 -8.2 17.2
10:30 1021 30.15 850 25.1 0.9 33.6 47 -9.1 15.7
10:35 1021 30.15 850 25.1 1.5 34.7 46 -8.8 16.2
10:40 1020 30.12 850 25.1 1.7 35 47 -8.6 16.6
10:45 1020 30.12 850 25.1 2.1 35.9 45 -8.6 16.6
10:50 1020 30.12 850 25.1 2.4 36.3 46 -8.1 17.5
10:55 1020 30.12 850 25.1 2.7 36.8 39 -9.9 14.1
11:00 1020 30.12 849 25.07 2.7 36.8 36 -11.1 12.1
11:05 1020 30.12 849 25.07 2.5 36.6 42 -9 15.7
11:10 1020 30.12 849 25.07 2.2 36 47 -8 17.6
11:15 1020 30.12 849 25.07 3 37.4 36 -10.7 12.7
11:20 1020 30.12 849 25.07 3.8 38.8 38 -9.3 15.3
11:25 1020 30.12 849 25.07 3 37.5 39 -9.7 14.5
11:30 1020 30.12 849 25.07 3.3 38 39 -9.3 15.3
11:35 1020 30.12 849 25.07 4 39.2 38 -9.1 15.7
11:40 1020 30.12 849 25.07 4.6 40.3 34 -10 14
11:45 1020 30.12 849 25.07 4.4 39.9 35 -9.9 14.2
11:50 1020 30.12 849 25.07 4.4 39.9 38 -8.6 16.4
11:55 1020 30.12 849 25.07 4.1 39.5 37 -9.3 15.3
12:00 1020 30.12 849 25.07 2.8 37.1 40 -9.5 15
12:05 1020 30.12 849 25.07 2.7 36.8 40 -9.7 14.5
12:10 1020 30.12 849 25.07 2.7 36.9 40 -9.5 14.9
12:15 1020 30.12 849 25.07 3.6 38.4 42 -8.1 17.4
12:20 1020 30.12 849 25.07 4.2 39.6 40 -8.2 17.3
12:25 1020 30.12 849 25.07 4.5 40.1 37 -9.1 15.6
12:30 1020 30.12 849 25.07 4.1 39.5 37 -9.4 15
12:35 1019 30.09 849 25.07 3.8 38.9 35 -10.3 13.5
12:40 1019 30.09 848 25.04 3.9 39 37 -9.4 15.1
12:45 1019 30.09 848 25.04 3.4 38 35 -10.6 12.9
12:50 1019 30.09 848 25.04 3.9 39.1 35 -10.3 13.4
12:55 1019 30.09 848 25.04 4.3 39.7 34 -10.4 13.3
13:00 1019 30.09 848 25.04 4.2 39.6 34 -10.2 13.6
13:05 1019 30.09 848 25.04 5.2 41.3 31 -10.5 13.2
13:10 1019 30.09 848 25.04 4.8 40.7 33 -10.1 13.8
13:15 1019 30.09 848 25.04 5 41 33 -9.9 14.2
13:20 1019 30.09 848 25.04 5 41.1 31 -10.7 12.7
13:25 1019 30.09 848 25.04 5.8 42.5 31 -10 14.1
13:30 1019 30.09 848 25.04 5.7 42.3 37 -7.9 17.8
13:35 1018 30.06 848 25.04 4.9 40.8 36 -9.1 15.6
13:40 1018 30.06 848 25.04 5.3 41.6 34 -9.4 15.1
13:45 1018 30.06 848 25.04 6.5 43.6 34 -8.3 17
13:50 1018 30.06 847 25.01 5.8 42.4 35 -8.4 16.9
13:55 1018 30.06 847 25.01 4.6 40.3 38 -8.6 16.6
14:00 1018 30.06 847 25.01 4.6 40.2 38 -8.4 16.8
14:05 1018 30.06 847 25.01 5.2 41.3 35 -9.2 15.5
14:10 1018 30.06 847 25.01 5.4 41.7 34 -9.2 15.4
14:15 1018 30.06 847 25.01 6.1 42.9 34 -8.7 16.4
14:20 1018 30.06 847 25.01 5.7 42.3 37 -7.9 17.8
14:25 1018 30.06 847 25.01 5.4 41.7 38 -8 17.6
14:30 1017 30.03 847 25.01 5.9 42.6 37 -7.6 18.4
14:35 1017 30.03 847 25.01 6 42.8 36 -7.9 17.8
14:40 1017 30.03 847 25.01 5.4 41.7 37 -8.1 17.3
14:45 1017 30.03 847 25.01 5.3 41.5 35 -9.1 15.6
14:50 1017 30.03 846 24.98 6.1 42.9 33 -9 15.8
14:55 1017 30.03 846 24.98 7.4 45.3 33 -7.9 17.8
15:00 1017 30.03 846 24.98 7.9 46.3 28 -9.7 14.6
15:05 1017 30.03 846 24.98 7.4 45.2 29 -9.4 15
15:10 1017 30.03 846 24.98 7.4 45.3 30 -8.9 15.9
15:15 1017 30.03 846 24.98 8.3 46.9 29 -8.9 15.9
15:20 1017 30.03 846 24.98 8.4 47.1 26 -10.3 13.5
15:25 1017 30.03 846 24.98 6.9 44.4 27 -10.7 12.7
15:30 1017 30.03 846 24.98 7.5 45.5 24 -11.8 10.8
15:35 1016 30 846 24.98 8.3 46.9 24 -11.3 11.7
15:40 1016 30 846 24.98 8.8 47.8 26 -9.8 14.4
15:45 1016 30 846 24.98 9.3 48.7 24 -10.2 13.6
15:50 1016 30 845 24.95 8.6 47.4 26 -10 14.1
15:55 1016 30 845 24.95 8.5 47.2 26 -9.9 14.2
16:00 1016 30 845 24.95 9.1 48.4 24 -10.2 13.7
16:05 1016 30 845 24.95 9.1 48.3 26 -9.3 15.3
16:10 1016 30 845 24.95 8.9 48 24 -10.4 13.2
16:15 1016 30 845 24.95 9.5 49.1 22 -11 12.1
16:20 1016 30 845 24.95 9 48.1 26 -9.7 14.5
16:25 1016 30 845 24.95 9.2 48.6 25 -9.8 14.4
16:30 1016 30 845 24.95 9.5 49.1 26 -9.1 15.7
16:35 1015 29.97 845 24.95 9.9 49.8 26 -8.9 15.9
16:40 1015 29.97 845 24.95 9.5 49 28 -8.2 17.3
16:45 1015 29.97 845 24.95 9.2 48.5 27 -8.9 16
16:50 1015 29.97 844 24.92 9.4 48.9 26 -9.3 15.3
16:55 1015 29.97 844 24.92 9.7 49.4 26 -8.8 16.2
17:00 1015 29.97 844 24.92 10.1 50.1 26 -8.4 16.8
17:05 1015 29.97 844 24.92 10.4 50.7 23 -9.8 14.3
17:10 1015 29.97 844 24.92 10.5 50.9 23 -10 14.1
17:15 1015 29.97 844 24.92 10.9 51.6 24 -8.7 16.4
17:20 1015 29.97 844 24.92 11.2 52.1 21 -10.2 13.6
17:25 1015 29.97 844 24.92 11.1 51.9 21 -10.4 13.3
17:30 1015 29.97 844 24.92 10.9 51.6 21 -10.5 13.1
17:35 1015 29.97 844 24.92 10.8 51.5 20 -11 12.2
17:40 1015 29.97 844 24.92 10.8 51.4 21 -10.9 12.4
17:45 1015 29.97 844 24.92 10.6 51 21 -10.8 12.6
17:50 1015 29.97 844 24.92 10.6 51.1 22 -10.4 13.3
17:55 1015 29.97 844 24.92 10.3 50.5 22 -10.4 13.3
18:00 1015 29.97 844 24.92 10.2 50.3 22 -10.7 12.7
18:05 1015 29.97 844 24.92 10.2 50.4 22 -10.5 13
18:10 1015 29.97 844 24.92 10.1 50.2 23 -10.1 13.9
18:15 1015 29.97 844 24.92 10.1 50.1 23 -10.4 13.3
18:20 1015 29.97 844 24.92 10.3 50.5 22 -10.5 13
18:25 1015 29.97 844 24.92 10 50.1 23 -10.3 13.4
18:30 1015 29.97 844 24.92 9.5 49.1 24 -10.2 13.6
18:35 1015 29.97 844 24.92 9.1 48.4 24 -10.4 13.3
18:40 1015 29.97 844 24.92 8.9 48 25 -10 14
18:45 1015 29.97 844 24.92 8.7 47.6 25 -10.4 13.2
18:50 1015 29.97 844 24.92 8.5 47.3 26 -10.1 13.7
18:55 1015 29.97 844 24.92 8.3 47 26 -10.1 13.8
19:00 1015 29.97 844 24.92 8.4 47.1 26 -10.1 13.8
19:05 1015 29.97 844 24.92 8.3 46.9 26 -9.9 14.1
19:10 1015 29.97 844 24.92 8.2 46.7 27 -9.7 14.6
19:15 1015 29.97 844 24.92 8 46.4 26 -10.1 13.7
19:20 1015 29.97 844 24.92 7.7 45.9 27 -10.3 13.5
19:25 1015 29.97 844 24.92 7.5 45.4 28 -9.9 14.1
19:30 1015 29.97 844 24.92 7.4 45.3 33 -7.8 18
19:35 1015 29.97 844 24.92 6.1 43.1 48 -4.2 24.5
19:40 1015 29.97 844 24.92 5.2 41.3 57 -2.6 27.3
19:45 1015 29.97 844 24.92 4.7 40.4 60 -2.3 27.8
19:50 1015 29.97 844 24.92 4.3 39.8 61 -2.4 27.7
19:55 1015 29.97 844 24.92 4.2 39.6 61 -2.6 27.4
20:00 1015 29.97 844 24.92 4.2 39.5 62 -2.6 27.4
20:05 1015 29.97 844 24.92 3.9 39.1 64 -2.3 27.9
20:10 1015 29.97 844 24.92 3.4 38.2 66 -2.3 27.9
20:15 1015 29.97 844 24.92 3.2 37.7 68 -2.2 28.1
20:20 1015 29.97 844 24.92 3 37.4 68 -2.3 27.9
20:25 1015 29.97 844 24.92 2.9 37.2 68 -2.5 27.5
20:30 1015 29.97 844 24.92 2.8 37.1 67 -2.6 27.3
20:35 1015 29.97 844 24.92 2.8 37 67 -2.8 27
20:40 1015 29.97 844 24.92 2.7 36.8 66 -3 26.6
20:45 1015 29.97 844 24.92 2.6 36.6 66 -3.1 26.4
20:50 1015 29.97 844 24.92 2.4 36.3 68 -2.9 26.7
20:55 1015 29.97 844 24.92 2.2 36 68 -3 26.6
21:00 1015 29.97 844 24.92 1.9 35.5 69 -3.1 26.4
21:05 1015 29.97 844 24.92 1.9 35.5 66 -3.7 25.3
21:10 1015 29.97 844 24.92 2.2 36 62 -4.2 24.4
21:15 1015 29.97 844 24.92 2.3 36.1 61 -4.5 23.8
21:20 1015 29.97 844 24.92 2.5 36.4 61 -4.3 24.3
21:25 1015 29.97 844 24.92 2.8 37 59 -4.5 23.9
21:30 1015 29.97 844 24.92 3 37.4 60 -3.9 25
21:35 1015 29.97 844 24.92 2.7 36.8 63 -3.8 25.2
21:40 1015 29.97 844 24.92 2.4 36.3 64 -3.7 25.3
21:45 1015 29.97 844 24.92 2.1 35.8 65 -3.7 25.3
21:50 1015 29.97 844 24.92 2.1 35.8 66 -3.7 25.4
21:55 1015 29.97 844 24.92 2 35.7 65 -3.8 25.2
22:00 1015 29.97 844 24.92 1.9 35.5 65 -3.9 25
22:05 1015 29.97 844 24.92 2.1 35.7 65 -3.9 25
22:10 1015 29.97 844 24.92 2.3 36.1 64 -3.9 25
22:15 1015 29.97 844 24.92 2.4 36.3 64 -3.8 25.1
22:20 1015 29.97 844 24.92 2.2 36 64 -3.8 25.2
22:25 1015 29.97 844 24.92 2.3 36.1 64 -3.9 25.1
22:30 1015 29.97 844 24.92 2.5 36.4 64 -3.6 25.5
22:35 1015 29.97 844 24.92 2.5 36.5 65 -3.4 25.8
22:40 1015 29.97 844 24.92 2.8 37.1 64 -3.3 26
22:45 1015 29.97 844 24.92 3.1 37.6 62 -3.4 25.8
22:50 1015 29.97 844 24.92 3.4 38.1 61 -3.4 25.9
22:55 1015 29.97 844 24.92 3.6 38.4 60 -3.4 25.8
23:00 1015 29.97 844 24.92 3.8 38.8 59 -3.5 25.8
23:05 1015 29.97 844 24.92 3.6 38.6 60 -3.3 26.1
23:10 1015 29.97 844 24.92 3.3 37.9 63 -3.1 26.5
23:15 1015 29.97 844 24.92 3.1 37.6 61 -3.8 25.2
23:20 1015 29.97 844 24.92 3.8 38.9 56 -4.1 24.7
23:25 1015 29.97 844 24.92 4.2 39.6 56 -3.8 25.1
23:30 1015 29.97 844 24.92 4.5 40.1 55 -3.7 25.4
23:35 1015 29.97 844 24.92 4.7 40.4 51 -4.6 23.8
23:40 1015 29.97 844 24.92 5.4 41.6 49 -4.5 23.8
23:45 1015 29.97 844 24.92 5.6 42.1 44 -5.7 21.8
23:50 1015 29.97 844 24.92 6.9 44.5 38 -6.4 20.4
23:55 1015 29.97 844 24.92 7.5 45.6 35 -6.8 19.7
24:00 1015 29.97 844 24.92 7.4 45.2 39 -5.6 22